Terminal Aerodrome Forecast
Issued by NWS

Home | Current Version | Previous Version | Text Only | Print | Product List | Glossary On
Versions: 1 2 3 4 5 6 7 8 9 10 11 12
457
FTUS45 KRIW 272334
TAFWRL
TAF
KWRL 272334Z 2800/2824 VRB06KT P6SM BKN150
     FM280100 VRB06KT P6SM VCSH BKN060 BKN150
     FM280300 VRB06KT 3SM -SHSN SCT015 OVC025
     FM280600 VRB04KT P6SM SCT025 BKN100
     FM281800 15008KT P6SM FEW150=

USA.gov is the U.S. government's official web portal to all federal, state and local government web resources and services.